Main page
METAR-TAF:

METAR-TAF

Airports :

Mytilene International Airport

Mytilene-Lesbos, Greece

latitude: 39-04N, longitude: 026-36E, elevation: 3 m

Current weather observation

The report was made 2 hours and 37 minutes ago, at 22:50 UTC
Wind 5 kt from the South/Southeast
Temperature 17°C
Humidity 88%
Pressure 1014 hPa
Visibility 10 km or more
Scattered clouds at a height of 2000 ft

METAR: LGMT 142250Z 15005KT 9999 SCT020 17/15 Q1014

Time: 03:27 (01:27 UTC)

Forecast

The report was made 2 hours and 27 minutes ago, at 23:00 UTC
Forecast valid from 15 at 00 UTC to 15 at 09 UTC
Wind 10 kt from the South
Visibility 10 km or more
Few clouds at a height of 1800 ft
Scattered clouds at a height of 2000 ft
Probability 30% :
Temporary
from 15 at 00 UTC to 15 at 06 UTC
Visibility: 5000 m
Few clouds at a height of 1800 ft, Cumulonimbus.
Broken clouds at a height of 2000 ft
thunderstorm, rain

TAF: LGMT 142300Z 1500/1509 18010KT 9999 FEW018 SCT020 PROB30 TEMPO 1500/1506 5000 TSRA FEW018CB BKN020

Weather observations and forecasts of more than 4000 airports (METAR and TAF reports).

The available stations are represented by yellow and red dots on the map.

Hover mouse over dot to see the name of the station.

Then click to see weather observations and forecasts.

To change the map : click on the green buttons with a black cross to zoom in, on the green button with a dash to zoom out, or on the green arrows for adjacent maps.


METAR-TAF: